»·PEaware :: N704YA CAD4-KGEG

N704YA :: CAD4-KGEG

FLIGHT INFORMATION

Flight Status: Arrived
Operator: Privately registered:
United States
More flights under this callsign
Pilot: Wayne R. (17783)
Aircraft: CESSNA 152 AEROBAT
(C152)
More flights by this aircraft type
Origin: CAD4 Trail
Canada
Destination: KGEG Spokane Intl
United States
More flights between these airports :: More routes between these airports
Route:
File this flight plan on PilotEdge
Remarks:
Altitude:
(Current/Filed)
5,500ft
Speed:
(Current/Filed)
100kts
Departed: 10-Oct-20 05:21 PM
Arrived: 10-Oct-20 06:26 PM
Distance/Time
Traveled:
6461nm/1:05
Distance/Time
To Go:
Arrived

Flight Plot

Page will automatically refresh every two minutes.

Flight plan parsing failed; only flown route is shown


Map Options




Map Legend


Flown Route
Filed Route
Departure Airport
Arrival Airport
Navaid (VOR, NDB)
Fix

Horizontal Profiles

Position Reports

Time Latitude Longitude Heading Altitude Ground
Speed
10-Oct-20 17:19 49.060600 -117.609625 177 1423ft 0kts
10-Oct-20 17:20 49.049554 -117.608965 177 1733ft 66kts
10-Oct-20 17:21 49.030866 -117.610289 200 2556ft 66kts
10-Oct-20 17:22 49.013525 -117.627313 215 3249ft 82kts
10-Oct-20 17:23 48.995112 -117.648097 221 3936ft 85kts
10-Oct-20 17:24 48.976358 -117.669414 230 4516ft 87kts
10-Oct-20 17:25 48.959041 -117.694353 156 4863ft 98kts
10-Oct-20 17:26 48.952493 -117.686825 148 4785ft 81kts
10-Oct-20 17:27 48.935319 -117.699856 242 5239ft 85kts
10-Oct-20 17:28 48.926319 -117.733923 247 5765ft 87kts
10-Oct-20 17:29 48.916537 -117.767627 258 6295ft 88kts
10-Oct-20 17:30 48.904848 -117.797654 211 6741ft 87kts
10-Oct-20 17:31 48.882796 -117.810669 194 7113ft 87kts
10-Oct-20 17:32 48.860078 -117.813321 165 7624ft 80kts
10-Oct-20 17:33 48.837902 -117.801710 159 7849ft 85kts
10-Oct-20 17:34 48.817209 -117.785444 153 8079ft 83kts
10-Oct-20 17:35 48.795657 -117.771068 159 8120ft 84kts
10-Oct-20 17:36 48.772913 -117.759582 173 8050ft 87kts
10-Oct-20 17:37 48.747963 -117.761621 182 7781ft 91kts
10-Oct-20 17:38 48.722399 -117.763880 188 7621ft 93kts
10-Oct-20 17:39 48.697457 -117.770838 185 7695ft 89kts
10-Oct-20 17:40 48.672379 -117.770444 187 7573ft 93kts
10-Oct-20 17:41 48.646892 -117.769850 162 7425ft 94kts
10-Oct-20 17:42 48.624268 -117.748234 153 7202ft 92kts
10-Oct-20 17:43 48.598548 -117.742055 179 7110ft 94kts
10-Oct-20 17:44 48.572543 -117.745071 181 7157ft 93kts
10-Oct-20 17:45 48.547236 -117.741375 172 7303ft 92kts
10-Oct-20 17:46 48.522270 -117.736907 181 7366ft 89kts
10-Oct-20 17:47 48.497731 -117.736916 165 7420ft 88kts
10-Oct-20 17:48 48.473413 -117.733407 176 7431ft 87kts
10-Oct-20 17:49 48.449331 -117.733212 195 7436ft 87kts
10-Oct-20 17:50 48.425927 -117.735465 181 7381ft 81kts
10-Oct-20 17:51 48.403248 -117.738673 190 7444ft 87kts
10-Oct-20 17:52 48.381245 -117.747560 176 7516ft 80kts
10-Oct-20 17:53 48.358357 -117.756672 199 7277ft 86kts
10-Oct-20 17:54 48.336659 -117.765023 190 7508ft 77kts
10-Oct-20 17:55 48.315196 -117.763077 186 7516ft 78kts
10-Oct-20 17:56 48.293160 -117.767788 166 7116ft 89kts
10-Oct-20 17:57 48.269474 -117.770753 175 6681ft 88kts
10-Oct-20 17:58 48.250806 -117.749026 143 6717ft 86kts
10-Oct-20 17:59 48.234172 -117.720807 136 6633ft 90kts
10-Oct-20 18:00 48.215249 -117.696314 156 6524ft 89kts
10-Oct-20 18:01 48.191770 -117.691085 189 6373ft 86kts
10-Oct-20 18:02 48.169258 -117.704311 182 6257ft 89kts
10-Oct-20 18:03 48.145151 -117.704497 190 6192ft 87kts
10-Oct-20 18:04 48.121877 -117.704890 153 6118ft 88kts
10-Oct-20 18:05 48.100774 -117.685710 160 6053ft 91kts
10-Oct-20 18:06 48.076427 -117.673549 175 5824ft 95kts
10-Oct-20 18:07 48.049841 -117.671832 170 5570ft 97kts
10-Oct-20 18:08 48.022903 -117.668229 173 5411ft 98kts
10-Oct-20 18:09 47.996154 -117.666985 176 5340ft 92kts
10-Oct-20 18:10 47.970724 -117.657634 174 5335ft 93kts
10-Oct-20 18:11 47.945268 -117.651548 162 5406ft 93kts
10-Oct-20 18:12 47.921326 -117.638472 158 5430ft 91kts
10-Oct-20 18:14 47.896140 -117.627210 146 5206ft 100kts
10-Oct-20 18:15 47.873311 -117.606500 159 5245ft 95kts
10-Oct-20 18:16 47.849377 -117.590625 138 5345ft 95kts
10-Oct-20 18:17 47.828413 -117.567159 146 5451ft 93kts
10-Oct-20 18:18 47.805337 -117.550535 163 5509ft 95kts
10-Oct-20 18:19 47.780422 -117.538222 159 5453ft 94kts
10-Oct-20 18:20 47.757156 -117.520118 156 5454ft 93kts
10-Oct-20 18:21 47.733444 -117.503399 158 5272ft 102kts
10-Oct-20 18:22 47.708195 -117.488738 161 4751ft 94kts
10-Oct-20 18:23 47.683278 -117.477044 169 4354ft 93kts
10-Oct-20 18:24 47.658814 -117.479327 211 3578ft 87kts
10-Oct-20 18:25 47.642521 -117.501802 221 2818ft 74kts
10-Oct-20 18:26 47.629512 -117.520841 224 2333ft 38kts
10-Oct-20 18:26 47.626417 -117.523289 135 2338ft 0kts
10-Oct-20 18:28 47.623944 -117.522702 123 2346ft 9kts
10-Oct-20 18:28 47.623377 -117.522292 25 2349ft 0kts
10-Oct-20 18:30 0.000408 0.013975 0 3ft 0kts
10-Oct-20 18:30 0.000408 0.013975 0 3ft 0kts
10-Oct-20 18:32 0.000408 0.013975 0 3ft 0kts
10-Oct-20 18:32 0.000408 0.013975 0 3ft 0kts
10-Oct-20 18:33 0.000408 0.013975 0 3ft 0kts
10-Oct-20 18:34 0.000408 0.013975 0 3ft 0kts
10-Oct-20 18:35 0.000408 0.013975 0 3ft 0kts
10-Oct-20 18:36 0.000408 0.013975 0 3ft 0kts
10-Oct-20 18:37 0.000408 0.013975 0 3ft 0kts
10-Oct-20 18:38 0.000408 0.013975 0 3ft 0kts
10-Oct-20 18:39 0.000408 0.013975 0 3ft 0kts
10-Oct-20 18:40 0.000408 0.013975 0 3ft 0kts

Navigation Log

Ident Type
Flight plan parsing failed, navigation log unavailable